Time;durP1;ratioP1;P1;durP2;ratioP2;P2;SDS_P1;SDS_P2;PMS_P1;PMS_P2;Temp;Humidity;BMP_temperature;BMP_pressure;BME280_temperature;BME280_humidity;BME280_pressure;Samples;Min_cycle;Max_cycle;Signal;HPM_P1;HPM_P2
2023/05/10 00:01:04;;;;;;;5.87;5.27;;;11.70;1.00;;;;;;6137444;23;20214;-90
2023/05/10 00:03:29;;;;;;;6.17;5.57;;;12.10;1.00;;;;;;6130455;23;20640;-87
2023/05/10 00:05:55;;;;;;;6.90;5.27;;;11.20;1.00;;;;;;6123091;23;20159;-88
2023/05/10 00:08:21;;;;;;;5.17;4.67;;;11.20;1.00;;;;;;6122657;23;20164;-89
2023/05/10 00:10:46;;;;;;;6.17;5.20;;;11.20;1.00;;;;;;6148634;23;20163;-87
2023/05/10 00:13:12;;;;;;;5.90;5.40;;;11.20;1.00;;;;;;6122427;23;20188;-88
2023/05/10 00:15:37;;;;;;;5.70;5.10;;;11.10;1.00;;;;;;6122355;23;20184;-86
2023/05/10 00:18:03;;;;;;;6.37;5.57;;;11.10;1.00;;;;;;6122742;23;20205;-89
2023/05/10 00:20:29;;;;;;;6.10;5.50;;;11.40;1.00;;;;;;6122562;23;20160;-88
2023/05/10 00:22:55;;;;;;;5.83;5.30;;;11.10;1.00;;;;;;6122217;23;20180;-89
2023/05/10 00:25:21;;;;;;;6.83;5.83;;;11.00;1.00;;;;;;6122342;23;20174;-89
2023/05/10 00:27:47;;;;;;;6.37;5.77;;;11.00;1.00;;;;;;6122637;23;20163;-89
2023/05/10 00:30:13;;;;;;;5.83;5.33;;;10.90;1.00;;;;;;6148320;23;20164;-89
2023/05/10 00:32:38;;;;;;;5.47;4.97;;;10.90;1.00;;;;;;6121993;23;20188;-89
2023/05/10 00:35:04;;;;;;;5.63;5.13;;;10.90;1.00;;;;;;6122148;23;20191;-88
2023/05/10 00:37:30;;;;;;;6.47;5.30;;;10.90;1.00;;;;;;6148215;23;20164;-88
2023/05/10 00:39:56;;;;;;;5.97;5.47;;;10.90;1.00;;;;;;6148332;23;20162;-88
2023/05/10 00:42:22;;;;;;;5.83;5.33;;;10.90;1.00;;;;;;6122252;23;20267;-89
2023/05/10 00:44:47;;;;;;;6.30;5.70;;;10.90;1.00;;;;;;6122180;23;20163;-88
2023/05/10 00:47:15;;;;;;;5.80;5.23;;;10.90;1.00;;;;;;6122477;23;20215;-89
2023/05/10 00:49:41;;;;;;;6.20;5.60;;;10.80;1.00;;;;;;6122310;23;20190;-90
2023/05/10 00:52:07;;;;;;;6.20;5.50;;;10.80;1.00;;;;;;6121970;23;20183;-89
2023/05/10 00:54:33;;;;;;;5.97;5.37;;;10.80;1.00;;;;;;6147812;23;20231;-86
2023/05/10 00:56:59;;;;;;;6.13;5.43;;;11.70;1.00;;;;;;6122507;23;20156;-90
2023/05/10 00:59:25;;;;;;;6.10;5.17;;;11.00;1.00;;;;;;6121786;23;20170;-88
2023/05/10 01:01:51;;;;;;;5.83;5.30;;;12.00;1.00;;;;;;6122148;23;20194;-88
2023/05/10 01:04:17;;;;;;;5.17;4.67;;;11.10;1.00;;;;;;6121887;23;20596;-88
2023/05/10 01:06:43;;;;;;;6.30;4.93;;;11.00;1.00;;;;;;6122365;23;20175;-88
2023/05/10 01:09:09;;;;;;;5.80;5.30;;;10.90;1.00;;;;;;6121974;23;20171;-87
2023/05/10 01:11:36;;;;;;;7.00;5.20;;;11.00;1.00;;;;;;6121758;23;20163;-88
2023/05/10 01:14:02;;;;;;;6.00;5.00;;;10.90;1.00;;;;;;6121025;23;20399;-88
2023/05/10 01:16:31;;;;;;;6.23;5.20;;;11.00;1.00;;;;;;6121805;23;20461;-88
2023/05/10 01:18:57;;;;;;;5.23;4.60;;;11.00;1.00;;;;;;6121777;23;20259;-89
2023/05/10 01:21:41;;;;;;;5.37;4.70;;;11.00;1.00;;;;;;6121921;23;20187;-89
2023/05/10 01:24:28;;;;;;;6.07;5.47;;;11.00;1.00;;;;;;6121123;23;20156;-85
2023/05/10 01:27:10;;;;;;;6.47;5.00;;;11.00;1.00;;;;;;6147873;23;20222;-87
2023/05/10 01:30:00;;;;;;;4.73;4.33;;;10.90;1.00;;;;;;6121528;23;20148;-87
2023/05/10 01:32:57;;;;;;;5.17;4.57;;;10.90;1.00;;;;;;6121573;23;20180;-88
2023/05/10 01:35:37;;;;;;;5.43;4.93;;;10.80;1.00;;;;;;6121858;23;20274;-88
2023/05/10 01:38:27;;;;;;;6.17;5.20;;;10.80;1.00;;;;;;6121972;23;20148;-88
2023/05/10 01:41:13;;;;;;;5.23;4.73;;;10.70;1.00;;;;;;6121419;23;20156;-88
2023/05/10 01:43:50;;;;;;;5.50;5.00;;;10.70;1.00;;;;;;6121013;23;20539;-88
2023/05/10 01:46:27;;;;;;;5.63;5.00;;;10.70;1.00;;;;;;6121215;23;20250;-88
2023/05/10 01:48:57;;;;;;;5.40;4.90;;;10.70;1.00;;;;;;6121803;23;20159;-88
2023/05/10 01:51:25;;;;;;;5.57;5.00;;;10.60;1.00;;;;;;6121689;23;20163;-88
2023/05/10 01:53:56;;;;;;;6.40;5.80;;;10.50;1.00;;;;;;6121452;23;20175;-88
2023/05/10 01:56:25;;;;;;;5.60;5.10;;;10.80;1.00;;;;;;6121663;23;20220;-90
2023/05/10 01:58:52;;;;;;;7.60;5.73;;;10.60;1.00;;;;;;6121629;23;20160;-89
2023/05/10 02:01:20;;;;;;;7.30;5.17;;;10.60;1.00;;;;;;6121576;23;20619;-88
2023/05/10 02:03:46;;;;;;;6.43;5.73;;;10.50;1.00;;;;;;6121189;23;21018;-88
2023/05/10 02:06:16;;;;;;;5.63;5.10;;;10.50;1.00;;;;;;6146803;23;20163;-89
2023/05/10 02:08:43;;;;;;;6.03;5.30;;;10.50;1.00;;;;;;6125518;23;20151;-89
2023/05/10 02:11:12;;;;;;;5.57;5.07;;;10.50;1.00;;;;;;6154073;23;20155;-89
2023/05/10 02:13:39;;;;;;;5.80;5.27;;;10.50;1.00;;;;;;6127415;23;20187;-89
2023/05/10 02:16:07;;;;;;;5.93;5.30;;;10.50;1.00;;;;;;6127682;23;20695;-89
2023/05/10 02:18:35;;;;;;;5.60;5.10;;;10.50;1.00;;;;;;6126953;23;20199;-90
2023/05/10 02:21:02;;;;;;;7.03;5.30;;;10.50;1.00;;;;;;6127077;23;20216;-89
2023/05/10 02:23:29;;;;;;;6.43;5.83;;;10.50;1.00;;;;;;6127398;23;20183;-90
2023/05/10 02:25:56;;;;;;;6.23;5.60;;;10.50;1.00;;;;;;6127958;23;20159;-91
2023/05/10 02:28:23;;;;;;;5.73;5.23;;;10.50;1.00;;;;;;6127605;23;20264;-89
2023/05/10 02:30:50;;;;;;;7.00;5.50;;;10.50;1.00;;;;;;6127990;23;20159;-89
2023/05/10 02:33:16;;;;;;;5.97;4.93;;;10.60;1.00;;;;;;6127627;23;20176;-88
2023/05/10 02:35:42;;;;;;;5.63;5.00;;;10.60;1.00;;;;;;6127300;23;20192;-89
2023/05/10 02:38:09;;;;;;;5.40;5.00;;;10.50;1.00;;;;;;6128168;23;20756;-88
2023/05/10 02:40:37;;;;;;;5.50;5.00;;;10.60;1.00;;;;;;6128228;23;20156;-89
2023/05/10 02:43:06;;;;;;;5.43;5.00;;;10.60;1.00;;;;;;6154280;23;20175;-90
2023/05/10 02:45:33;;;;;;;6.00;5.40;;;10.60;1.00;;;;;;6127684;23;20166;-89
2023/05/10 02:47:59;;;;;;;5.83;5.20;;;10.60;1.00;;;;;;6127846;23;20155;-90
2023/05/10 02:50:28;;;;;;;5.67;5.10;;;10.60;1.00;;;;;;6153967;23;20179;-90
2023/05/10 02:52:59;;;;;;;6.37;5.37;;;11.20;1.00;;;;;;6127733;23;20179;-89
2023/05/10 02:55:32;;;;;;;5.80;5.20;;;10.50;1.00;;;;;;6127766;23;20206;-87
2023/05/10 02:58:00;;;;;;;5.60;5.10;;;10.50;1.00;;;;;;6154374;23;20140;-90
2023/05/10 03:00:26;;;;;;;6.93;5.40;;;10.60;1.00;;;;;;6128114;23;20226;-89
2023/05/10 03:02:52;;;;;;;7.00;5.57;;;10.50;1.00;;;;;;6128148;23;20635;-89
2023/05/10 03:05:17;;;;;;;6.07;5.30;;;10.50;1.00;;;;;;6127936;23;20159;-90
2023/05/10 03:07:43;;;;;;;5.50;5.00;;;10.50;1.00;;;;;;6127950;23;20167;-88
2023/05/10 03:10:10;;;;;;;5.40;4.90;;;10.60;1.00;;;;;;6132179;23;20172;-89
2023/05/10 03:12:38;;;;;;;6.17;5.13;;;10.70;1.00;;;;;;6140071;23;20561;-90
2023/05/10 03:15:31;;;;;;;5.93;5.43;;;10.70;1.00;;;;;;6133184;23;20180;-89
2023/05/10 03:18:10;;;;;;;5.30;4.80;;;10.70;1.00;;;;;;6135820;23;20254;-89
2023/05/10 03:20:43;;;;;;;6.23;5.63;;;10.80;1.00;;;;;;6137358;23;20175;-89
2023/05/10 03:23:18;;;;;;;5.90;5.40;;;10.80;1.00;;;;;;6137552;23;20172;-89
2023/05/10 03:25:46;;;;;;;6.27;5.67;;;10.80;1.00;;;;;;6136065;23;20198;-90
2023/05/10 03:28:14;;;;;;;6.40;5.70;;;10.80;1.00;;;;;;6142744;23;20156;-90
2023/05/10 03:30:41;;;;;;;5.80;5.20;;;10.80;1.00;;;;;;6139867;23;20242;-89
2023/05/10 03:33:07;;;;;;;5.70;5.20;;;10.90;1.00;;;;;;6140919;23;20187;-90
2023/05/10 03:35:33;;;;;;;5.80;5.30;;;10.80;1.00;;;;;;6141669;23;20251;-89
2023/05/10 03:37:58;;;;;;;5.50;5.00;;;10.90;1.00;;;;;;6136241;23;20592;-90
2023/05/10 03:40:25;;;;;;;8.27;5.73;;;10.80;1.00;;;;;;6133796;23;20234;-89
2023/05/10 03:42:51;;;;;;;6.20;5.60;;;10.80;1.00;;;;;;6134548;23;20258;-90
2023/05/10 03:45:16;;;;;;;6.00;5.33;;;10.80;1.00;;;;;;6133023;23;20550;-90
2023/05/10 03:47:42;;;;;;;5.97;5.37;;;11.60;1.00;;;;;;6135224;23;20167;-90
2023/05/10 03:50:08;;;;;;;5.70;5.17;;;11.60;1.00;;;;;;6135498;23;20211;-89
2023/05/10 03:52:33;;;;;;;6.10;5.60;;;10.90;1.00;;;;;;6135843;23;20210;-91
2023/05/10 03:54:59;;;;;;;7.53;5.73;;;10.90;1.00;;;;;;6134753;23;20183;-91
2023/05/10 03:57:24;;;;;;;6.70;6.00;;;10.90;1.00;;;;;;6132450;23;20156;-91
2023/05/10 03:59:50;;;;;;;6.63;5.83;;;11.50;1.00;;;;;;6132623;23;20155;-90
2023/05/10 04:02:16;;;;;;;6.00;5.50;;;10.80;1.00;;;;;;6135929;23;20255;-89
2023/05/10 04:04:41;;;;;;;5.70;5.23;;;10.90;1.00;;;;;;6135373;23;20163;-89
2023/05/10 04:07:07;;;;;;;7.23;5.30;;;11.00;1.00;;;;;;6134015;23;20210;-89
2023/05/10 04:09:33;;;;;;;6.03;5.43;;;11.00;1.00;;;;;;6134255;23;20168;-89
2023/05/10 04:12:00;;;;;;;6.27;5.67;;;11.10;1.00;;;;;;6133772;23;20187;-89
2023/05/10 04:14:25;;;;;;;5.87;5.37;;;11.10;1.00;;;;;;6138780;23;20188;-89
2023/05/10 04:16:51;;;;;;;6.17;5.57;;;11.10;1.00;;;;;;6137128;23;20156;-89
2023/05/10 04:19:16;;;;;;;6.73;5.77;;;11.70;1.00;;;;;;6134182;23;20148;-89
2023/05/10 04:21:42;;;;;;;6.73;5.80;;;11.50;1.00;;;;;;6137206;23;20151;-90
2023/05/10 04:24:08;;;;;;;6.93;5.73;;;11.20;1.00;;;;;;6140232;23;20659;-90
2023/05/10 04:26:33;;;;;;;7.47;5.33;;;11.20;1.00;;;;;;6137160;23;20160;-89
2023/05/10 04:28:59;;;;;;;6.70;5.30;;;11.20;1.00;;;;;;6135723;23;20214;-89
2023/05/10 04:31:24;;;;;;;6.37;5.77;;;11.20;1.00;;;;;;6134819;23;20155;-89
2023/05/10 04:33:50;;;;;;;5.95;5.30;;;11.20;1.00;;;;;;6135354;23;20176;-89
2023/05/10 04:36:15;;;;;;;5.93;5.38;;;11.20;1.00;;;;;;6140240;23;20183;-89
2023/05/10 04:38:42;;;;;;;6.23;5.60;;;11.20;1.00;;;;;;6141108;23;20156;-89
2023/05/10 04:41:09;;;;;;;6.17;5.60;;;11.90;1.00;;;;;;6140786;23;20162;-89
2023/05/10 04:43:35;;;;;;;7.03;5.60;;;11.50;1.00;;;;;;6138379;23;20233;-90
2023/05/10 04:46:01;;;;;;;6.25;5.65;;;11.20;1.00;;;;;;6140834;23;20246;-90
2023/05/10 04:48:27;;;;;;;6.03;5.53;;;11.30;1.00;;;;;;6141244;23;20159;-89
2023/05/10 04:50:52;;;;;;;9.07;5.80;;;11.30;1.00;;;;;;6140249;23;20170;-89
2023/05/10 04:53:18;;;;;;;6.10;5.50;;;11.20;1.00;;;;;;6138669;23;20180;-87
2023/05/10 04:55:43;;;;;;;7.30;5.63;;;11.20;1.00;;;;;;6134530;23;20262;-86
2023/05/10 04:58:09;;;;;;;6.03;5.40;;;11.20;1.00;;;;;;6150603;23;20611;-88
2023/05/10 05:00:35;;;;;;;7.17;5.57;;;11.30;1.00;;;;;;6160502;23;20148;-89
2023/05/10 05:03:00;;;;;;;7.53;5.53;;;11.20;1.00;;;;;;6137271;23;20687;-89
2023/05/10 05:05:26;;;;;;;8.63;5.80;;;11.20;1.00;;;;;;6134134;23;20163;-90
2023/05/10 05:07:51;;;;;;;8.60;6.00;;;11.20;1.00;;;;;;6134824;23;20507;-89
2023/05/10 05:10:17;;;;;;;7.05;6.20;;;11.10;1.00;;;;;;6133535;23;20164;-89
2023/05/10 05:12:43;;;;;;;5.73;5.23;;;11.10;1.00;;;;;;6135995;23;20184;-89
2023/05/10 05:15:09;;;;;;;7.50;6.07;;;12.00;1.00;;;;;;6137966;23;20203;-89
2023/05/10 05:17:35;;;;;;;6.25;5.60;;;11.20;1.00;;;;;;6136125;23;20198;-89
2023/05/10 05:20:00;;;;;;;6.57;5.70;;;11.10;1.00;;;;;;6140469;23;20155;-89
2023/05/10 05:22:29;;;;;;;6.43;5.67;;;11.20;1.00;;;;;;6136514;23;20205;-89
2023/05/10 05:24:56;;;;;;;6.22;5.63;;;11.20;1.00;;;;;;6140538;23;20228;-89
2023/05/10 05:27:24;;;;;;;6.80;6.07;;;11.10;1.00;;;;;;6138264;23;20159;-88
2023/05/10 05:29:50;;;;;;;6.30;5.70;;;11.10;1.00;;;;;;6139913;23;20159;-90
2023/05/10 05:32:16;;;;;;;7.80;6.70;;;11.10;1.00;;;;;;6142779;23;20183;-89
2023/05/10 05:34:43;;;;;;;6.63;6.03;;;11.10;1.00;;;;;;6138874;23;20318;-89
2023/05/10 05:37:14;;;;;;;6.93;6.13;;;11.10;1.00;;;;;;6138143;23;20544;-89
2023/05/10 05:39:39;;;;;;;6.20;5.60;;;11.10;1.00;;;;;;6135878;23;20140;-89
2023/05/10 05:42:05;;;;;;;6.20;5.70;;;11.40;1.00;;;;;;6137156;23;20179;-90
2023/05/10 05:44:30;;;;;;;6.43;5.83;;;11.20;1.00;;;;;;6135281;23;20160;-89
2023/05/10 05:46:56;;;;;;;7.28;6.35;;;11.30;1.00;;;;;;6135739;23;20163;-89
2023/05/10 05:49:22;;;;;;;6.60;6.00;;;11.20;1.00;;;;;;6134289;23;20179;-90
2023/05/10 05:51:49;;;;;;;7.80;6.00;;;11.40;1.00;;;;;;6139345;23;20555;-91
2023/05/10 05:54:15;;;;;;;6.45;5.85;;;12.00;1.00;;;;;;6139827;23;20608;-89
2023/05/10 05:56:40;;;;;;;7.00;6.28;;;12.90;1.00;;;;;;6137465;23;20158;-88
2023/05/10 05:59:06;;;;;;;9.07;6.38;;;12.20;1.00;;;;;;6137960;23;20158;-89
2023/05/10 06:01:31;;;;;;;7.13;6.53;;;12.50;1.00;;;;;;6136772;23;20156;-89
2023/05/10 06:03:57;;;;;;;7.60;6.90;;;11.70;1.00;;;;;;6135403;23;20188;-89
2023/05/10 06:06:29;;;;;;;6.82;6.20;;;11.70;1.00;;;;;;6136219;23;20255;-89
2023/05/10 06:08:55;;;;;;;7.15;5.38;;;12.40;1.00;;;;;;6131036;23;20661;-89
2023/05/10 06:11:21;;;;;;;8.85;7.30;;;11.80;1.00;;;;;;6128124;23;20159;-89
2023/05/10 06:13:54;;;;;;;7.38;6.75;;;11.90;1.00;;;;;;6123510;23;20179;-90
2023/05/10 06:16:20;;;;;;;6.53;5.65;;;12.00;1.00;;;;;;6128891;23;20624;-88
2023/05/10 06:18:45;;;;;;;7.28;6.55;;;12.10;1.00;;;;;;6128608;23;20225;-89
2023/05/10 06:21:11;;;;;;;8.90;6.95;;;12.20;1.00;;;;;;6128963;23;20155;-89
2023/05/10 06:23:36;;;;;;;7.13;6.32;;;12.30;1.00;;;;;;6128977;23;20623;-88
2023/05/10 06:26:02;;;;;;;7.00;6.30;;;12.50;1.00;;;;;;6128935;23;20187;-89
2023/05/10 06:28:28;;;;;;;13.23;7.05;;;12.60;1.00;;;;;;6128877;23;20168;-89
2023/05/10 06:30:54;;;;;;;6.85;6.25;;;12.60;1.00;;;;;;6128755;23;20229;-88
2023/05/10 06:33:19;;;;;;;6.40;5.90;;;12.50;1.00;;;;;;6129070;23;20179;-88
2023/05/10 06:35:45;;;;;;;6.97;6.25;;;12.50;1.00;;;;;;6128602;23;20183;-88
2023/05/10 06:38:10;;;;;;;6.63;5.78;;;12.50;1.00;;;;;;6128461;23;20238;-89
2023/05/10 06:40:36;;;;;;;6.13;5.50;;;12.60;1.00;;;;;;6128727;23;20224;-87
2023/05/10 06:43:02;;;;;;;6.68;6.05;;;12.30;1.00;;;;;;6128400;23;20648;-89
2023/05/10 06:45:27;;;;;;;6.90;6.25;;;12.20;1.00;;;;;;6127569;23;20164;-88
2023/05/10 06:47:53;;;;;;;7.18;6.47;;;12.20;1.00;;;;;;6128508;23;20854;-89
2023/05/10 06:50:18;;;;;;;6.80;6.20;;;12.40;1.00;;;;;;6129387;23;20159;-88
2023/05/10 06:52:44;;;;;;;7.32;6.63;;;12.60;1.00;;;;;;6129971;23;20742;-88
2023/05/10 06:55:10;;;;;;;8.02;6.35;;;12.70;1.00;;;;;;6130059;23;20195;-88
2023/05/10 06:57:36;;;;;;;7.15;6.55;;;13.30;1.00;;;;;;6130175;23;20155;-88
2023/05/10 07:00:03;;;;;;;7.53;6.82;;;12.90;1.00;;;;;;6156212;23;20155;-88
2023/05/10 07:02:29;;;;;;;6.93;6.28;;;12.80;1.00;;;;;;6129369;23;20171;-88
2023/05/10 07:04:55;;;;;;;7.22;6.57;;;12.90;1.00;;;;;;6129454;23;20218;-87
2023/05/10 07:07:20;;;;;;;6.68;6.07;;;12.90;1.00;;;;;;6129512;23;20564;-86
2023/05/10 07:09:46;;;;;;;8.13;7.35;;;12.50;1.00;;;;;;6130931;23;20186;-87
2023/05/10 07:12:11;;;;;;;7.47;6.65;;;12.60;1.00;;;;;;6130761;23;20184;-87
2023/05/10 07:14:37;;;;;;;6.95;6.35;;;12.60;1.00;;;;;;6130454;23;20244;-87
2023/05/10 07:17:03;;;;;;;7.97;7.18;;;12.70;1.00;;;;;;6130497;23;20163;-86
2023/05/10 07:19:29;;;;;;;7.82;6.65;;;12.90;1.00;;;;;;6132160;23;20167;-86
2023/05/10 07:21:55;;;;;;;7.85;7.15;;;12.90;1.00;;;;;;6132162;23;20662;-87
2023/05/10 07:24:20;;;;;;;7.82;7.10;;;13.60;1.00;;;;;;6132836;23;20156;-87
2023/05/10 07:26:46;;;;;;;8.00;7.15;;;13.10;1.00;;;;;;6158159;23;20202;-87
2023/05/10 07:29:12;;;;;;;7.30;6.60;;;13.50;1.00;;;;;;6134038;23;20167;-86
2023/05/10 07:31:37;;;;;;;10.32;7.00;;;13.00;1.00;;;;;;6133145;23;20164;-86
2023/05/10 07:34:03;;;;;;;8.35;7.65;;;13.00;1.00;;;;;;6132749;23;20166;-86
2023/05/10 07:36:28;;;;;;;8.38;7.50;;;13.10;1.00;;;;;;6131942;23;20187;-86
2023/05/10 07:38:54;;;;;;;7.95;6.60;;;13.10;1.00;;;;;;6131964;23;20159;-87
2023/05/10 07:41:20;;;;;;;8.15;7.30;;;13.20;1.00;;;;;;6129767;23;20152;-86
2023/05/10 07:43:46;;;;;;;8.13;7.38;;;13.70;1.00;;;;;;6128720;23;20183;-86
2023/05/10 07:46:12;;;;;;;7.93;7.20;;;13.60;1.00;;;;;;6128538;23;20156;-86
2023/05/10 07:48:37;;;;;;;8.93;6.70;;;14.00;1.00;;;;;;6128572;23;20636;-87
2023/05/10 07:51:03;;;;;;;7.43;6.80;;;14.40;1.00;;;;;;6127171;23;20163;-87
2023/05/10 07:53:28;;;;;;;7.75;7.05;;;13.90;1.00;;;;;;6128378;23;20270;-86
2023/05/10 07:55:57;;;;;;;7.22;6.57;;;14.10;1.00;;;;;;6154949;23;20176;-87
2023/05/10 07:58:23;;;;;;;7.95;7.00;;;14.70;1.00;;;;;;6129045;23;20163;-87
2023/05/10 08:00:49;;;;;;;7.30;6.70;;;14.60;1.00;;;;;;6127935;23;20222;-87
2023/05/10 08:03:15;;;;;;;7.00;6.35;;;14.70;1.00;;;;;;6127712;23;20219;-86
2023/05/10 08:05:41;;;;;;;7.03;6.28;;;14.80;1.00;;;;;;6154618;23;20166;-86
2023/05/10 08:08:06;;;;;;;7.20;6.60;;;14.70;1.00;;;;;;6153813;23;20151;-86
2023/05/10 08:10:32;;;;;;;7.85;7.07;;;14.20;1.00;;;;;;6128244;23;20202;-87
2023/05/10 08:12:58;;;;;;;7.68;6.97;;;14.00;1.00;;;;;;6124875;23;20184;-87
2023/05/10 08:15:24;;;;;;;7.38;6.78;;;14.00;1.00;;;;;;6126801;23;20516;-87
2023/05/10 08:17:51;;;;;;;7.50;6.90;;;13.90;1.00;;;;;;6126801;23;20262;-86
2023/05/10 08:20:18;;;;;;;8.15;7.45;;;14.00;1.00;;;;;;6126358;23;20155;-87
2023/05/10 08:22:45;;;;;;;8.30;7.55;;;14.00;1.00;;;;;;6125674;23;20221;-87
2023/05/10 08:25:10;;;;;;;9.48;7.85;;;13.80;1.00;;;;;;6125702;23;20159;-87
2023/05/10 08:27:36;;;;;;;8.85;8.05;;;13.70;1.00;;;;;;6149235;23;20163;-85
2023/05/10 08:30:02;;;;;;;9.05;8.20;;;14.20;1.00;;;;;;6149141;23;20596;-86
2023/05/10 08:32:27;;;;;;;9.13;8.23;;;13.60;7.20;;;;;;6118325;23;20214;-86
2023/05/10 08:34:53;;;;;;;8.50;7.65;;;13.50;6.00;;;;;;6119680;23;20195;-87
2023/05/10 08:37:18;;;;;;;9.00;8.10;;;13.50;95.50;;;;;;6124195;23;20190;-87
2023/05/10 08:39:47;;;;;;;8.00;7.40;;;13.40;99.90;;;;;;6123776;23;20546;-88
2023/05/10 08:42:16;;;;;;;9.13;8.27;;;13.40;95.90;;;;;;6123972;23;20179;-88
2023/05/10 08:44:42;;;;;;;8.98;8.18;;;13.50;99.90;;;;;;6123507;23;20195;-89
2023/05/10 08:47:10;;;;;;;10.85;9.75;;;13.60;99.90;;;;;;6125100;23;20163;-87
2023/05/10 08:49:41;;;;;;;9.15;8.45;;;13.60;99.90;;;;;;6127982;23;20714;-90
2023/05/10 08:52:07;;;;;;;8.07;7.28;;;14.70;99.90;;;;;;6127398;23;20262;-88
2023/05/10 08:54:34;;;;;;;8.27;7.47;;;14.50;99.90;;;;;;6127118;23;20198;-89
2023/05/10 08:57:00;;;;;;;8.05;7.35;;;14.00;99.90;;;;;;6130475;23;20480;-89
2023/05/10 08:59:26;;;;;;;7.35;6.75;;;14.30;99.90;;;;;;6129773;23;20164;-90
2023/05/10 09:01:53;;;;;;;7.15;6.65;;;15.10;99.90;;;;;;6129551;23;20171;-90
2023/05/10 09:04:20;;;;;;;7.40;6.70;;;15.10;99.90;;;;;;6130140;23;20206;-90
2023/05/10 09:06:46;;;;;;;6.90;6.32;;;14.80;97.10;;;;;;6129666;23;20214;-91
2023/05/10 09:09:12;;;;;;;6.93;6.30;;;15.10;97.60;;;;;;6129557;23;20159;-90
2023/05/10 09:11:38;;;;;;;7.55;6.93;;;14.80;80.10;;;;;;6129132;23;20216;-91
2023/05/10 09:14:04;;;;;;;7.40;6.80;;;15.70;49.10;;;;;;6128574;23;20570;-90
2023/05/10 09:16:29;;;;;;;7.50;6.90;;;16.10;79.70;;;;;;6129554;23;20183;-91
2023/05/10 09:18:55;;;;;;;7.68;6.97;;;15.60;24.70;;;;;;6128524;23;20179;-90
2023/05/10 09:21:21;;;;;;;7.13;6.53;;;15.50;38.30;;;;;;6127502;23;20160;-90
2023/05/10 09:23:49;;;;;;;6.70;6.07;;;16.20;99.90;;;;;;6128600;23;20178;-89
2023/05/10 09:26:16;;;;;;;6.57;5.93;;;16.30;63.00;;;;;;6127312;23;20498;-90
2023/05/10 09:28:56;;;;;;;7.63;6.75;;;15.90;99.90;;;;;;6123427;23;20159;-90
2023/05/10 09:31:23;;;;;;;6.68;6.18;;;16.20;52.80;;;;;;6123654;23;20167;-90
2023/05/10 09:33:50;;;;;;;8.13;6.78;;;15.60;49.80;;;;;;6125487;23;20183;-90
2023/05/10 09:36:16;;;;;;;7.30;6.70;;;15.70;41.20;;;;;;6126333;23;20194;-91
2023/05/10 09:38:47;;;;;;;6.68;6.18;;;15.20;37.00;;;;;;6127183;23;20186;-91
2023/05/10 09:41:21;;;;;;;7.43;6.72;;;15.60;72.10;;;;;;6128324;23;20717;-91
2023/05/10 09:43:47;;;;;;;7.70;7.00;;;15.00;90.10;;;;;;6128463;23;20208;-91
2023/05/10 09:46:13;;;;;;;8.25;7.47;;;15.10;99.90;;;;;;6128311;23;20220;-91
2023/05/10 09:48:48;;;;;;;7.57;6.97;;;15.30;99.90;;;;;;6128914;23;20188;-91
2023/05/10 09:51:24;;;;;;;7.63;6.93;;;15.30;99.90;;;;;;6128469;23;20155;-91
2023/05/10 09:54:13;;;;;;;8.13;7.43;;;15.30;99.90;;;;;;6127865;23;20183;-91
2023/05/10 09:56:40;;;;;;;7.53;6.93;;;14.80;99.90;;;;;;6127713;23;20650;-91
2023/05/10 09:59:07;;;;;;;7.28;6.63;;;15.40;99.90;;;;;;6128112;23;20596;-91
2023/05/10 10:01:34;;;;;;;7.10;6.50;;;15.70;99.90;;;;;;6131351;23;20235;-90
2023/05/10 10:04:04;;;;;;;6.70;6.20;;;15.30;99.90;;;;;;6140554;23;20187;-91
2023/05/10 10:06:38;;;;;;;6.72;6.03;;;14.70;1.00;;;;;;6139596;23;20251;-90
2023/05/10 10:09:04;;;;;;;5.78;5.38;;;15.40;1.00;;;;;;6138268;23;20159;-90
2023/05/10 10:11:30;;;;;;;6.35;5.75;;;14.60;1.00;;;;;;6137818;23;20170;-90
2023/05/10 10:13:56;;;;;;;5.88;5.38;;;14.50;1.00;;;;;;6131630;23;20207;-90
2023/05/10 10:16:22;;;;;;;5.00;4.63;;;15.60;99.90;;;;;;6129305;23;20195;-90
2023/05/10 10:18:48;;;;;;;5.07;4.60;;;14.80;99.90;;;;;;6130708;23;20198;-92
2023/05/10 10:21:15;;;;;;;4.13;3.72;;;14.60;99.90;;;;;;6124211;23;20596;-91
2023/05/10 10:23:40;;;;;;;4.43;3.60;;;15.00;1.00;;;;;;6121983;23;20516;-90
2023/05/10 10:26:07;;;;;;;3.75;3.40;;;15.10;1.00;;;;;;6118793;23;20155;-89
2023/05/10 10:28:38;;;;;;;3.72;3.42;;;14.30;1.00;;;;;;6118902;23;20164;-91
2023/05/10 10:31:24;;;;;;;3.20;3.00;;;14.20;1.00;;;;;;6145068;23;20148;-91
2023/05/10 10:34:01;;;;;;;3.20;2.90;;;15.00;1.00;;;;;;6126428;23;20190;-88
2023/05/10 10:36:27;;;;;;;2.67;2.30;;;14.00;1.00;;;;;;6126437;23;20253;-90
2023/05/10 10:39:01;;;;;;;2.60;2.17;;;14.10;99.90;;;;;;6127993;23;20600;-91
2023/05/10 10:41:35;;;;;;;2.20;1.90;;;12.70;1.00;;;;;;6128045;23;20214;-92
2023/05/10 10:47:08;;;;;;;1.90;1.80;;;13.60;1.00;;;;;;6155898;23;20160;-91
2023/05/10 10:49:52;;;;;;;2.08;1.52;;;14.70;1.00;;;;;;6128876;23;20603;-90
2023/05/10 10:52:42;;;;;;;2.42;1.70;;;13.70;99.90;;;;;;6131033;23;20509;-89
2023/05/10 10:55:12;;;;;;;1.90;1.48;;;13.80;99.90;;;;;;6116673;23;20191;-91
2023/05/10 10:58:03;;;;;;;1.40;1.30;;;14.20;1.00;;;;;;6129968;23;20162;-91
2023/05/10 11:00:34;;;;;;;1.60;1.50;;;13.70;1.00;;;;;;6129030;23;20156;-91
2023/05/10 11:03:07;;;;;;;1.40;1.30;;;14.00;1.00;;;;;;6128475;23;20389;-91
2023/05/10 11:05:54;;;;;;;1.45;1.30;;;14.10;1.00;;;;;;6128891;23;20183;-91
2023/05/10 11:12:15;;;;;;;1.20;1.10;;;14.30;99.90;;;;;;6154386;23;20191;-91
2023/05/10 11:15:20;;;;;;;0.82;0.82;;;15.30;1.00;;;;;;6110719;23;20184;-91
2023/05/10 11:22:27;;;;;;;1.38;1.20;;;14.70;97.50;;;;;;6028376;23;20170;-91
2023/05/10 11:24:59;;;;;;;2.83;1.60;;;14.60;1.00;;;;;;6011912;23;20234;-91
2023/05/10 11:27:32;;;;;;;1.25;1.10;;;14.90;99.90;;;;;;6012197;23;20498;-91
2023/05/10 11:30:01;;;;;;;1.52;1.42;;;14.60;1.00;;;;;;6107008;23;20156;-91
2023/05/10 11:32:40;;;;;;;1.45;1.35;;;14.70;1.00;;;;;;6130698;23;20187;-91
2023/05/10 11:35:09;;;;;;;2.30;1.75;;;15.90;99.90;;;;;;6129389;23;20184;-91
2023/05/10 11:38:04;;;;;;;3.08;2.00;;;14.90;1.00;;;;;;6130345;23;20155;-91
2023/05/10 11:40:53;;;;;;;;;;;;;;;;;;;;;
2023/05/10 11:44:00;;;;;;;;;;;;;;;;;;;;;
2023/05/10 11:53:54;;;;;;;1.67;0.90;;;15.60;99.90;;;;;;5956856;23;20174;-91
2023/05/10 11:56:32;;;;;;;2.10;1.00;;;16.00;99.90;;;;;;6038029;23;20219;-91
2023/05/10 11:58:58;;;;;;;1.60;0.90;;;15.50;99.90;;;;;;6011190;23;20162;-91
2023/05/10 12:01:27;;;;;;;0.73;0.73;;;17.20;99.90;;;;;;6133623;23;20253;-93
2023/05/10 12:03:55;;;;;;;1.65;0.50;;;17.30;99.90;;;;;;6149936;23;20181;-93
2023/05/10 12:06:21;;;;;;;0.65;0.50;;;16.70;51.40;;;;;;6148530;23;20406;-92
2023/05/10 12:08:52;;;;;;;0.60;0.60;;;17.20;32.10;;;;;;6151183;23;20203;-93
2023/05/10 12:11:25;;;;;;;1.00;0.45;;;17.70;15.20;;;;;;6148926;23;20159;-93
2023/05/10 12:13:51;;;;;;;0.80;0.50;;;17.90;11.10;;;;;;6147185;23;20202;-92
2023/05/10 12:16:22;;;;;;;1.33;0.50;;;17.20;1.00;;;;;;6149670;23;20429;-92
2023/05/10 12:18:55;;;;;;;0.60;0.50;;;17.20;1.00;;;;;;6146599;23;20172;-92
2023/05/10 12:21:21;;;;;;;0.70;0.50;;;18.40;1.00;;;;;;6143283;23;20226;-91
2023/05/10 12:23:52;;;;;;;0.50;0.40;;;18.30;1.00;;;;;;6143252;23;20172;-93
2023/05/10 12:26:18;;;;;;;3.83;1.00;;;18.70;1.00;;;;;;6142498;23;20155;-92
2023/05/10 12:28:44;;;;;;;0.70;0.70;;;17.60;1.00;;;;;;6139796;23;20198;-92
2023/05/10 12:31:10;;;;;;;0.70;0.70;;;17.80;1.00;;;;;;6140027;23;20217;-93
2023/05/10 12:33:42;;;;;;;1.33;0.68;;;18.00;1.00;;;;;;6138023;23;20266;-91
2023/05/10 12:36:09;;;;;;;0.90;0.90;;;18.90;1.00;;;;;;6136755;23;20187;-91
2023/05/10 12:38:37;;;;;;;0.98;0.93;;;18.10;1.00;;;;;;6135012;23;20156;-92
2023/05/10 12:41:05;;;;;;;0.73;0.70;;;18.70;1.00;;;;;;6134113;23;20163;-92
2023/05/10 12:43:32;;;;;;;1.15;0.80;;;18.40;1.00;;;;;;6135050;23;20183;-92
2023/05/10 12:45:58;;;;;;;1.70;0.60;;;19.40;1.00;;;;;;6133533;23;20160;-91
2023/05/10 12:48:24;;;;;;;0.88;0.85;;;19.20;1.00;;;;;;6133505;23;20246;-91
2023/05/10 12:50:50;;;;;;;0.85;0.70;;;18.50;1.00;;;;;;6133243;23;20164;-92
2023/05/10 12:53:16;;;;;;;0.75;0.75;;;19.00;1.00;;;;;;6132811;23;20199;-92
2023/05/10 12:55:43;;;;;;;0.90;0.90;;;18.80;1.00;;;;;;6130778;23;20186;-92
2023/05/10 12:58:08;;;;;;;1.15;0.90;;;18.50;1.00;;;;;;6131487;23;20627;-91
2023/05/10 13:00:34;;;;;;;0.80;0.80;;;18.50;1.00;;;;;;6131325;23;20159;-91
2023/05/10 13:03:00;;;;;;;1.08;0.90;;;18.20;1.00;;;;;;6131431;23;20175;-91
2023/05/10 13:05:25;;;;;;;1.00;0.90;;;19.30;1.00;;;;;;6131619;23;20580;-92
2023/05/10 13:07:51;;;;;;;1.10;0.75;;;19.30;1.00;;;;;;6130859;23;20214;-92
2023/05/10 13:10:17;;;;;;;1.02;0.90;;;18.80;1.00;;;;;;6130614;23;20205;-91
2023/05/10 13:12:42;;;;;;;0.98;0.77;;;18.90;1.00;;;;;;6130347;23;20266;-91
2023/05/10 13:15:08;;;;;;;1.23;0.90;;;19.10;1.00;;;;;;6130064;23;20190;-92
2023/05/10 13:17:34;;;;;;;1.73;1.10;;;19.10;1.00;;;;;;6129976;23;20156;-92
2023/05/10 13:19:59;;;;;;;1.52;0.77;;;20.00;1.00;;;;;;6130248;23;20662;-92
2023/05/10 13:22:25;;;;;;;1.20;1.10;;;19.50;1.00;;;;;;6129691;23;20187;-91